createdAt,value
2018-08-24T00:01:20.293Z,14.58
2018-08-24T00:03:53.727Z,14.03
2018-08-24T00:06:27.162Z,12.60
2018-08-24T00:09:00.621Z,13.22
2018-08-24T00:11:34.038Z,16.15
2018-08-24T00:14:07.503Z,14.07
2018-08-24T00:16:42.608Z,13.78
2018-08-24T00:19:17.112Z,13.88
2018-08-24T00:21:50.529Z,14.00
2018-08-24T00:24:23.930Z,13.68
2018-08-24T00:26:57.333Z,13.25
2018-08-24T00:29:30.751Z,13.60
2018-08-24T00:32:04.186Z,12.60
2018-08-24T00:34:37.564Z,13.30
2018-08-24T00:37:11.016Z,13.60
2018-08-24T00:39:45.159Z,12.60
2018-08-24T00:42:18.597Z,12.30
2018-08-24T00:44:52.015Z,11.57
2018-08-24T00:47:25.462Z,13.18
2018-08-24T00:49:58.873Z,12.30
2018-08-24T00:52:32.307Z,12.23
2018-08-24T00:55:05.741Z,14.28
2018-08-24T00:57:39.164Z,13.83
2018-08-24T01:00:12.637Z,13.75
2018-08-24T01:02:46.060Z,12.98
2018-08-24T01:05:19.490Z,14.30
2018-08-24T01:07:58.377Z,13.85
2018-08-24T01:10:31.807Z,13.25
2018-08-24T01:13:09.384Z,14.60
2018-08-24T01:15:52.181Z,15.43
2018-08-24T01:18:30.869Z,15.63
2018-08-24T01:21:04.440Z,13.98
2018-08-24T01:23:37.869Z,14.55
2018-08-24T01:26:11.299Z,14.65
2018-08-24T01:28:44.721Z,12.88
2018-08-24T01:31:18.107Z,16.67
2018-08-24T01:33:51.518Z,16.12
2018-08-24T01:36:24.979Z,15.78
2018-08-24T01:38:58.468Z,13.45
2018-08-24T01:41:31.852Z,13.22
2018-08-24T01:44:05.267Z,17.70
2018-08-24T01:46:38.664Z,14.65
2018-08-24T01:49:12.103Z,13.53
2018-08-24T01:51:45.495Z,15.48
2018-08-24T01:54:18.926Z,17.75
2018-08-24T01:56:52.335Z,15.38
2018-08-24T01:59:25.830Z,14.75
2018-08-24T02:01:59.271Z,15.20
2018-08-24T02:04:32.701Z,14.65
2018-08-24T02:07:06.088Z,15.45
2018-08-24T02:09:39.507Z,14.93
2018-08-24T02:12:18.260Z,16.15
2018-08-24T02:14:51.670Z,15.30
2018-08-24T02:17:30.395Z,16.52
2018-08-24T02:20:09.160Z,17.17
2018-08-24T02:22:42.581Z,19.55
2018-08-24T02:25:15.983Z,17.90
2018-08-24T02:27:49.423Z,17.23
2018-08-24T02:30:22.839Z,15.95
2018-08-24T02:32:56.272Z,17.45
2018-08-24T02:35:29.736Z,16.55
2018-08-24T02:38:04.142Z,17.02
2018-08-24T02:40:37.556Z,17.20
2018-08-24T02:43:10.989Z,16.82
2018-08-24T02:45:44.405Z,18.30
2018-08-24T02:48:17.803Z,16.50
2018-08-24T02:50:51.239Z,15.70
2018-08-24T02:53:24.652Z,15.95
2018-08-24T02:55:58.151Z,15.88
2018-08-24T02:58:31.596Z,16.65
2018-08-24T03:01:05.000Z,18.05
2018-08-24T03:03:38.382Z,17.65
2018-08-24T03:06:11.810Z,17.30
2018-08-24T03:08:45.664Z,15.50
2018-08-24T03:11:19.094Z,17.65
2018-08-24T03:13:52.556Z,17.23
2018-08-24T03:16:26.061Z,17.80
2018-08-24T03:18:59.431Z,16.90
2018-08-24T03:21:32.897Z,18.50
2018-08-24T03:24:06.397Z,15.20
2018-08-24T03:26:40.121Z,18.20
2018-08-24T03:29:13.622Z,15.88
2018-08-24T03:31:47.061Z,16.87
2018-08-24T03:34:20.443Z,17.02
2018-08-24T03:36:53.855Z,17.27
2018-08-24T03:39:27.297Z,15.78
2018-08-24T03:42:00.727Z,16.73
2018-08-24T03:44:34.119Z,16.85
2018-08-24T03:47:07.583Z,16.60
2018-08-24T03:49:40.983Z,20.65
2018-08-24T03:52:14.404Z,18.73
2018-08-24T03:54:47.817Z,16.05
2018-08-24T03:57:21.261Z,15.20
2018-08-24T03:59:54.694Z,13.10
2018-08-24T04:02:28.122Z,17.92
2018-08-24T04:05:02.037Z,16.05
2018-08-24T04:07:35.473Z,15.88
2018-08-24T04:10:08.940Z,18.02
2018-08-24T04:12:42.390Z,15.03
2018-08-24T04:15:15.799Z,14.53
2018-08-24T04:17:49.791Z,15.95
2018-08-24T04:20:23.191Z,14.85
2018-08-24T04:22:56.555Z,14.23
2018-08-24T04:25:29.995Z,14.33
2018-08-24T04:28:03.421Z,15.60
2018-08-24T04:30:36.857Z,15.08
2018-08-24T04:33:10.283Z,13.65
2018-08-24T04:35:43.738Z,12.43
2018-08-24T04:38:17.174Z,12.53
2018-08-24T04:40:50.589Z,14.28
2018-08-24T04:43:24.224Z,12.45
2018-08-24T04:45:57.781Z,11.70
2018-08-24T04:48:31.184Z,12.80
2018-08-24T04:51:04.595Z,11.48
2018-08-24T04:53:37.984Z,11.85
2018-08-24T04:56:11.413Z,12.55
2018-08-24T04:58:44.791Z,12.00
2018-08-24T05:01:18.265Z,12.47
2018-08-24T05:03:51.678Z,11.53
2018-08-24T05:06:25.143Z,11.30
2018-08-24T05:08:58.506Z,10.58
2018-08-24T05:11:31.934Z,10.00
2018-08-24T05:14:05.365Z,9.28
2018-08-24T05:16:38.783Z,9.05
2018-08-24T05:19:12.146Z,8.38
2018-08-24T05:21:45.526Z,8.38
2018-08-24T05:24:18.909Z,6.45
2018-08-24T05:26:52.299Z,6.53
2018-08-24T05:29:25.685Z,4.87
2018-08-24T05:31:59.125Z,4.50
2018-08-24T05:34:32.513Z,3.30
2018-08-24T05:37:05.924Z,3.52
2018-08-24T05:39:39.317Z,3.37
2018-08-24T05:42:12.823Z,2.80
2018-08-24T05:44:46.189Z,3.22
2018-08-24T05:47:19.641Z,3.10
2018-08-24T05:49:53.052Z,3.35
2018-08-24T05:52:26.471Z,3.27
2018-08-24T05:54:59.847Z,4.58
2018-08-24T05:57:33.236Z,3.40
2018-08-24T06:00:06.663Z,4.40
2018-08-24T06:02:40.075Z,3.70
2018-08-24T06:05:13.508Z,3.62
2018-08-24T06:07:46.921Z,3.98
2018-08-24T06:10:20.746Z,4.35
2018-08-24T06:12:54.137Z,4.28
2018-08-24T06:15:27.856Z,4.00
2018-08-24T06:18:01.314Z,3.62
2018-08-24T06:20:34.721Z,5.28
2018-08-24T06:23:08.119Z,4.87
2018-08-24T06:25:41.508Z,3.33
2018-08-24T06:28:14.899Z,3.62
2018-08-24T06:30:48.427Z,3.87
2018-08-24T06:33:23.921Z,4.12
2018-08-24T06:35:57.292Z,5.55
2018-08-24T06:38:30.724Z,3.02
2018-08-24T06:41:04.103Z,3.70
2018-08-24T06:43:37.532Z,3.45
2018-08-24T06:46:10.922Z,3.67
2018-08-24T06:48:44.391Z,5.58
2018-08-24T06:51:18.025Z,4.47
2018-08-24T06:53:51.463Z,5.67
2018-08-24T06:56:24.887Z,5.85
2018-08-24T06:58:58.291Z,3.83
2018-08-24T07:01:31.686Z,4.40
2018-08-24T07:04:05.107Z,4.12
2018-08-24T07:06:38.489Z,5.42
2018-08-24T07:09:11.983Z,4.87
2018-08-24T07:11:45.351Z,4.97
2018-08-24T07:14:18.800Z,5.35
2018-08-24T07:16:56.351Z,5.03
2018-08-24T07:19:30.629Z,8.18
2018-08-24T07:22:04.009Z,5.10
2018-08-24T07:24:37.396Z,7.70
2018-08-24T07:27:10.802Z,6.12
2018-08-24T07:29:44.204Z,5.87
2018-08-24T07:32:17.606Z,5.08
2018-08-24T07:34:50.984Z,5.90
2018-08-24T07:37:24.396Z,4.92
2018-08-24T07:39:57.810Z,5.20
2018-08-24T07:42:31.212Z,5.30
2018-08-24T07:45:04.644Z,5.17
2018-08-24T07:47:38.080Z,4.62
2018-08-24T07:50:11.460Z,6.20
2018-08-24T07:52:44.859Z,5.22
2018-08-24T07:55:18.280Z,5.35
2018-08-24T07:57:51.655Z,8.60
2018-08-24T08:00:25.099Z,4.33
2018-08-24T08:02:58.538Z,6.90
2018-08-24T08:05:31.980Z,5.92
2018-08-24T08:08:05.422Z,4.92
2018-08-24T08:10:40.755Z,6.58
2018-08-24T08:13:14.160Z,4.80
2018-08-24T08:15:47.562Z,5.78
2018-08-24T08:18:21.161Z,4.72
2018-08-24T08:20:54.563Z,5.33
2018-08-24T08:23:27.982Z,4.60
2018-08-24T08:26:01.409Z,5.22
2018-08-24T08:28:34.814Z,6.45
2018-08-24T08:31:08.200Z,6.95
2018-08-24T08:33:41.611Z,6.10
2018-08-24T08:36:14.968Z,5.72
2018-08-24T08:38:48.434Z,6.47
2018-08-24T08:41:21.878Z,7.05
2018-08-24T08:43:55.321Z,9.15
2018-08-24T08:46:28.702Z,4.80
2018-08-24T08:49:02.176Z,6.78
2018-08-24T08:51:35.587Z,5.53
2018-08-24T08:54:09.023Z,6.17
2018-08-24T08:56:42.431Z,5.95
2018-08-24T08:59:15.845Z,5.85
2018-08-24T09:01:49.219Z,5.45
2018-08-24T09:04:22.631Z,8.15
2018-08-24T09:06:56.015Z,8.08
2018-08-24T09:09:29.414Z,5.87
2018-08-24T09:12:02.843Z,5.00
2018-08-24T09:14:36.350Z,6.90
2018-08-24T09:17:15.106Z,5.40
2018-08-24T09:19:54.023Z,5.10
2018-08-24T09:22:32.841Z,4.90
2018-08-24T09:25:11.569Z,4.90
2018-08-24T09:28:52.527Z,5.65
2018-08-24T09:31:28.223Z,8.75
2018-08-24T09:34:01.671Z,6.78
2018-08-24T09:36:35.044Z,7.90
2018-08-24T09:39:09.409Z,10.65
2018-08-24T09:41:42.827Z,11.45
2018-08-24T09:44:16.241Z,12.28
2018-08-24T09:46:54.949Z,7.45
2018-08-24T09:49:32.911Z,8.13
2018-08-24T09:52:11.478Z,5.20
2018-08-24T09:54:44.865Z,4.80
2018-08-24T09:57:18.308Z,8.60
2018-08-24T09:59:51.716Z,5.17
2018-08-24T10:02:29.247Z,9.73
2018-08-24T10:05:08.085Z,10.70
2018-08-24T10:07:44.974Z,5.55
2018-08-24T10:10:18.374Z,6.17
2018-08-24T10:12:51.774Z,6.83
2018-08-24T10:15:25.936Z,5.83
2018-08-24T10:17:59.308Z,5.00
2018-08-24T10:20:32.725Z,5.50
2018-08-24T10:23:06.223Z,7.47
2018-08-24T10:25:39.562Z,5.92
2018-08-24T10:28:12.943Z,7.20
2018-08-24T10:30:46.932Z,6.10
2018-08-24T10:33:20.321Z,7.65
2018-08-24T10:35:53.782Z,12.18
2018-08-24T10:38:27.232Z,5.45
2018-08-24T10:41:00.692Z,6.22
2018-08-24T10:43:34.048Z,7.87
2018-08-24T10:46:07.514Z,5.25
2018-08-24T10:48:40.917Z,4.72
2018-08-24T10:51:14.426Z,6.90
2018-08-24T10:53:47.847Z,4.05
2018-08-24T10:56:21.242Z,6.67
2018-08-24T10:58:54.644Z,4.08
2018-08-24T11:01:28.027Z,4.12
2018-08-24T11:04:01.463Z,4.53
2018-08-24T11:06:34.901Z,4.58
2018-08-24T11:09:09.947Z,4.35
2018-08-24T11:11:49.995Z,5.35
2018-08-24T11:14:23.406Z,3.83
2018-08-24T11:16:56.899Z,3.67
2018-08-24T11:19:30.231Z,3.30
2018-08-24T11:22:03.644Z,3.37
2018-08-24T11:24:37.020Z,3.10
2018-08-24T11:27:10.444Z,4.97
2018-08-24T11:29:43.864Z,3.65
2018-08-24T11:32:17.275Z,3.62
2018-08-24T11:34:50.693Z,3.70
2018-08-24T11:37:24.114Z,4.00
2018-08-24T11:39:57.512Z,4.08
2018-08-24T11:42:30.959Z,4.58
2018-08-24T11:45:04.377Z,3.62
2018-08-24T11:47:37.810Z,5.42
2018-08-24T11:50:11.195Z,6.42
2018-08-24T11:52:44.645Z,5.08
2018-08-24T11:55:18.289Z,4.50
2018-08-24T11:57:51.682Z,4.90
2018-08-24T12:00:31.053Z,5.15
2018-08-24T12:03:04.787Z,5.03
2018-08-24T12:05:38.174Z,6.22
2018-08-24T12:08:11.898Z,5.35
2018-08-24T12:10:45.175Z,5.20
2018-08-24T12:13:18.566Z,5.70
2018-08-24T12:15:52.083Z,5.20
2018-08-24T12:18:25.660Z,6.12
2018-08-24T12:20:58.975Z,5.45
2018-08-24T12:23:33.424Z,4.28
2018-08-24T12:26:06.880Z,4.37
2018-08-24T12:28:40.344Z,4.33
2018-08-24T12:31:13.707Z,5.17
2018-08-24T12:33:47.124Z,4.62
2018-08-24T12:36:20.552Z,5.17
2018-08-24T12:38:54.017Z,4.47
2018-08-24T12:41:27.387Z,4.28
2018-08-24T12:44:00.791Z,4.80
2018-08-24T12:46:34.163Z,3.62
2018-08-24T12:49:07.660Z,4.28
2018-08-24T12:51:41.018Z,4.62
2018-08-24T12:54:14.581Z,6.03
2018-08-24T12:56:48.104Z,3.55
2018-08-24T12:59:21.548Z,4.80
2018-08-24T13:01:54.951Z,4.87
2018-08-24T13:04:30.022Z,3.50
2018-08-24T13:07:04.256Z,4.03
2018-08-24T13:09:38.719Z,4.33
2018-08-24T13:12:12.211Z,4.67
2018-08-24T13:14:45.571Z,5.45
2018-08-24T13:17:19.546Z,4.40
2018-08-24T13:19:52.930Z,5.40
2018-08-24T13:22:26.308Z,3.85
2018-08-24T13:24:59.782Z,3.67
2018-08-24T13:27:33.413Z,4.40
2018-08-24T13:30:07.920Z,8.35
2018-08-24T13:32:41.457Z,3.90
2018-08-24T13:35:14.970Z,3.92
2018-08-24T13:37:48.944Z,9.05
2018-08-24T13:40:23.120Z,4.70
2018-08-24T13:42:57.085Z,9.68
2018-08-24T13:45:30.570Z,4.33
2018-08-24T13:48:04.406Z,4.78
2018-08-24T13:50:39.428Z,5.12
2018-08-24T13:53:12.847Z,5.60
2018-08-24T13:55:46.257Z,4.80
2018-08-24T13:58:19.720Z,2.67
2018-08-24T14:00:55.388Z,3.55
2018-08-24T14:03:28.886Z,4.80
2018-08-24T14:06:02.269Z,4.70
2018-08-24T14:08:35.823Z,2.58
2018-08-24T14:11:09.337Z,3.40
2018-08-24T14:13:42.930Z,2.90
2018-08-24T14:16:16.328Z,3.55
2018-08-24T14:18:49.745Z,4.42
2018-08-24T14:21:23.154Z,3.20
2018-08-24T14:23:56.539Z,7.28
2018-08-24T14:26:30.042Z,4.60
2018-08-24T14:29:03.526Z,4.00
2018-08-24T14:31:36.958Z,3.08
2018-08-24T14:34:10.395Z,6.08
2018-08-24T14:36:43.766Z,2.65
2018-08-24T14:39:17.148Z,5.80
2018-08-24T14:41:50.531Z,8.30
2018-08-24T14:44:23.979Z,10.60
2018-08-24T14:46:57.431Z,5.65
2018-08-24T14:49:30.862Z,8.08
2018-08-24T14:52:04.313Z,8.35
2018-08-24T14:54:37.742Z,7.92
2018-08-24T14:57:11.273Z,5.90
2018-08-24T14:59:44.864Z,5.70
2018-08-24T15:02:18.365Z,5.12
2018-08-24T15:04:51.761Z,6.35
2018-08-24T15:07:25.217Z,8.75
2018-08-24T15:09:58.796Z,9.18
2018-08-24T15:12:32.180Z,5.20
2018-08-24T15:15:05.627Z,2.80
2018-08-24T15:17:39.004Z,2.62
2018-08-24T15:20:12.421Z,4.08
2018-08-24T15:22:45.797Z,2.85
2018-08-24T15:25:19.195Z,5.40
2018-08-24T15:27:52.590Z,7.03
2018-08-24T15:30:26.011Z,4.05
2018-08-24T15:32:59.383Z,4.28
2018-08-24T15:35:32.980Z,4.62
2018-08-24T15:38:06.347Z,7.95
2018-08-24T15:40:39.765Z,3.17
2018-08-24T15:43:13.162Z,3.00
2018-08-24T15:45:46.556Z,4.30
2018-08-24T15:48:19.947Z,3.85
2018-08-24T15:50:54.245Z,4.65
2018-08-24T15:53:27.632Z,3.00
2018-08-24T15:56:01.114Z,7.12
2018-08-24T15:58:34.553Z,3.35
2018-08-24T16:01:07.956Z,2.72
2018-08-24T16:03:41.418Z,2.10
2018-08-24T16:06:14.877Z,3.92
2018-08-24T16:08:48.262Z,2.85
2018-08-24T16:11:21.660Z,3.12
2018-08-24T16:13:55.037Z,2.35
2018-08-24T16:16:28.435Z,1.92
2018-08-24T16:19:01.894Z,4.37
2018-08-24T16:21:35.431Z,4.20
2018-08-24T16:24:09.123Z,4.08
2018-08-24T16:26:42.512Z,2.75
2018-08-24T16:29:15.884Z,5.10
2018-08-24T16:31:49.411Z,2.85
2018-08-24T16:34:23.987Z,4.20
2018-08-24T16:37:00.099Z,2.27
2018-08-24T16:39:33.719Z,2.90
2018-08-24T16:42:07.444Z,4.67
2018-08-24T16:44:40.854Z,3.80
2018-08-24T16:47:14.307Z,5.12
2018-08-24T16:49:47.695Z,5.17
2018-08-24T16:52:21.079Z,4.10
2018-08-24T16:55:01.999Z,2.55
2018-08-24T16:57:35.517Z,3.25
2018-08-24T17:00:09.496Z,2.60
2018-08-24T17:02:42.970Z,2.30
2018-08-24T17:05:16.390Z,1.98
2018-08-24T17:07:49.752Z,2.92
2018-08-24T17:10:23.375Z,3.17
2018-08-24T17:12:57.044Z,2.17
2018-08-24T17:15:30.683Z,3.60
2018-08-24T17:18:04.190Z,5.08
2018-08-24T17:20:37.965Z,3.10
2018-08-24T17:23:11.317Z,2.67
2018-08-24T17:25:44.728Z,1.92
2018-08-24T17:28:18.099Z,4.50
2018-08-24T17:30:51.519Z,3.77
2018-08-24T17:33:24.896Z,4.10
2018-08-24T17:35:58.353Z,2.90
2018-08-24T17:38:31.755Z,3.98
2018-08-24T17:41:05.138Z,2.45
2018-08-24T17:43:38.597Z,4.30
2018-08-24T17:46:12.028Z,2.95
2018-08-24T17:48:45.424Z,2.87
2018-08-24T17:51:18.843Z,3.58
2018-08-24T17:53:52.209Z,2.05
2018-08-24T17:56:25.638Z,3.17
2018-08-24T17:58:59.088Z,3.10
2018-08-24T18:01:32.593Z,3.65
2018-08-24T18:04:06.185Z,2.45
2018-08-24T18:06:40.916Z,3.17
2018-08-24T18:09:14.357Z,2.40
2018-08-24T18:11:47.807Z,1.72
2018-08-24T18:14:21.189Z,2.20
2018-08-24T18:16:54.620Z,2.75
2018-08-24T18:19:27.999Z,2.75
2018-08-24T18:22:02.341Z,2.75
2018-08-24T18:24:35.780Z,4.12
2018-08-24T18:27:09.133Z,1.72
2018-08-24T18:29:42.576Z,2.47
2018-08-24T18:32:16.083Z,2.25
2018-08-24T18:34:49.459Z,2.67
2018-08-24T18:37:22.907Z,4.03
2018-08-24T18:39:56.332Z,2.08
2018-08-24T18:42:29.887Z,2.72
2018-08-24T18:45:03.252Z,3.30
2018-08-24T18:47:37.225Z,3.60
2018-08-24T18:50:11.467Z,1.80
2018-08-24T18:52:44.925Z,2.30
2018-08-24T18:55:18.315Z,3.95
2018-08-24T18:57:51.740Z,1.92
2018-08-24T19:00:25.217Z,2.45
2018-08-24T19:02:58.613Z,2.60
2018-08-24T19:05:32.143Z,2.00
2018-08-24T19:08:09.935Z,3.05
2018-08-24T19:10:50.985Z,2.02
2018-08-24T19:13:25.201Z,5.42
2018-08-24T19:15:58.590Z,4.42
2018-08-24T19:18:37.214Z,2.20
2018-08-24T19:21:48.793Z,1.52
2018-08-24T19:24:22.230Z,1.67
2018-08-24T19:26:55.648Z,1.75
2018-08-24T19:29:34.452Z,2.55
2018-08-24T19:32:08.098Z,2.62
2018-08-24T19:34:41.488Z,2.00
2018-08-24T19:37:14.901Z,3.62
2018-08-24T19:39:53.700Z,3.15
2018-08-24T19:42:27.364Z,4.45
2018-08-24T19:45:00.821Z,2.90
2018-08-24T19:47:39.488Z,1.82
2018-08-24T19:50:12.875Z,2.47
2018-08-24T19:52:46.292Z,1.95
2018-08-24T19:55:19.665Z,2.92
2018-08-24T19:57:58.477Z,2.05
2018-08-24T20:00:32.735Z,2.60
2018-08-24T20:03:06.230Z,3.55
2018-08-24T20:05:39.645Z,2.52
2018-08-24T20:08:18.432Z,2.80
2018-08-24T20:10:52.032Z,2.08
2018-08-24T20:13:25.646Z,3.83
2018-08-24T20:16:04.658Z,4.33
2018-08-24T20:18:38.362Z,2.27
2018-08-24T20:21:11.915Z,2.22
2018-08-24T20:23:45.540Z,2.20
2018-08-24T20:26:19.519Z,2.47
2018-08-24T20:28:53.153Z,2.98
2018-08-24T20:31:26.793Z,3.85
2018-08-24T20:34:00.395Z,2.75
2018-08-24T20:36:34.387Z,2.60
2018-08-24T20:39:09.302Z,2.58
2018-08-24T20:41:43.262Z,2.12
2018-08-24T20:44:16.673Z,4.30
2018-08-24T20:46:50.035Z,2.15
2018-08-24T20:49:23.481Z,2.37
2018-08-24T20:51:57.432Z,3.50
2018-08-24T20:54:30.843Z,1.47
2018-08-24T20:57:05.058Z,2.70
2018-08-24T20:59:38.549Z,5.70
2018-08-24T21:02:12.428Z,1.87
2018-08-24T21:04:45.936Z,2.72
2018-08-24T21:07:19.313Z,1.72
2018-08-24T21:09:52.772Z,3.62
2018-08-24T21:12:28.533Z,2.58
2018-08-24T21:15:01.991Z,2.22
2018-08-24T21:17:35.647Z,2.15
2018-08-24T21:20:09.098Z,2.00
2018-08-24T21:22:42.499Z,2.27
2018-08-24T21:25:16.460Z,2.98
2018-08-24T21:27:50.353Z,2.92
2018-08-24T21:30:24.297Z,2.55
2018-08-24T21:32:58.105Z,2.83
2018-08-24T21:35:32.951Z,2.77
2018-08-24T21:38:08.775Z,1.77
2018-08-24T21:40:43.506Z,2.92
2018-08-24T21:43:17.449Z,1.80
2018-08-24T21:45:53.758Z,4.05
2018-08-24T21:48:28.789Z,1.75
2018-08-24T21:51:03.629Z,2.58
2018-08-24T21:53:38.305Z,2.62
2018-08-24T21:56:12.957Z,3.33
2018-08-24T21:58:46.921Z,1.40
2018-08-24T22:01:21.862Z,2.55
2018-08-24T22:03:56.521Z,1.40
2018-08-24T22:06:30.427Z,1.95
2018-08-24T22:09:06.990Z,3.02
2018-08-24T22:11:40.907Z,1.57
2018-08-24T22:14:15.324Z,1.82
2018-08-24T22:16:49.563Z,1.98
2018-08-24T22:19:26.855Z,4.22
2018-08-24T22:22:01.601Z,2.50
2018-08-24T22:24:35.335Z,2.27
2018-08-24T22:27:09.021Z,2.12
2018-08-24T22:29:42.847Z,2.77
2018-08-24T22:32:16.687Z,3.10
2018-08-24T22:34:50.625Z,1.55
2018-08-24T22:37:24.561Z,1.52
2018-08-24T22:39:58.515Z,2.35
2018-08-24T22:42:32.384Z,4.03
2018-08-24T22:45:06.340Z,2.77
2018-08-24T22:47:40.165Z,2.22
2018-08-24T22:50:15.012Z,4.05
2018-08-24T22:52:48.636Z,1.82
2018-08-24T22:55:22.269Z,2.52
2018-08-24T22:57:56.142Z,2.15
2018-08-24T23:00:29.845Z,1.90
2018-08-24T23:03:03.761Z,2.55
2018-08-24T23:05:37.694Z,2.35
2018-08-24T23:08:11.696Z,3.92
2018-08-24T23:10:45.574Z,2.83
2018-08-24T23:13:19.965Z,1.57
2018-08-24T23:15:53.886Z,2.58
2018-08-24T23:18:27.547Z,1.60
2018-08-24T23:21:01.287Z,2.70
2018-08-24T23:23:34.960Z,3.27
2018-08-24T23:26:09.418Z,3.77
2018-08-24T23:28:42.998Z,1.17
2018-08-24T23:31:16.667Z,1.60
2018-08-24T23:33:50.603Z,2.40
2018-08-24T23:36:24.282Z,3.80
2018-08-24T23:38:57.982Z,3.35
2018-08-24T23:41:32.559Z,3.12
2018-08-24T23:44:06.694Z,4.53
2018-08-24T23:46:40.432Z,4.22
2018-08-24T23:49:14.111Z,3.47
2018-08-24T23:51:48.102Z,1.92
2018-08-24T23:54:21.746Z,2.50
2018-08-24T23:56:55.679Z,2.52
2018-08-24T23:59:30.012Z,3.05
